createdAt,value
2018-09-19T00:02:02.871Z,13.70
2018-09-19T00:04:31.498Z,13.60
2018-09-19T00:07:00.299Z,13.33
2018-09-19T00:09:28.925Z,13.73
2018-09-19T00:11:57.501Z,13.23
2018-09-19T00:14:26.037Z,13.20
2018-09-19T00:16:54.732Z,12.67
2018-09-19T00:19:23.409Z,10.90
2018-09-19T00:21:53.496Z,13.63
2018-09-19T00:24:22.139Z,12.07
2018-09-19T00:26:50.700Z,11.50
2018-09-19T00:29:19.332Z,11.50
2018-09-19T00:31:48.188Z,11.27
2018-09-19T00:34:16.837Z,10.63
2018-09-19T00:36:45.392Z,11.00
2018-09-19T00:39:14.155Z,11.40
2018-09-19T00:41:42.821Z,11.30
2018-09-19T00:44:11.396Z,10.57
2018-09-19T00:46:39.955Z,9.67
2018-09-19T00:49:08.525Z,11.03
2018-09-19T00:51:37.158Z,10.73
2018-09-19T00:54:05.734Z,10.23
2018-09-19T00:56:34.525Z,8.90
2018-09-19T00:59:03.331Z,9.70
2018-09-19T01:01:32.024Z,10.47
2018-09-19T01:04:00.607Z,10.00
2018-09-19T01:06:29.243Z,8.40
2018-09-19T01:08:58.056Z,8.60
2018-09-19T01:11:26.637Z,8.80
2018-09-19T01:13:55.258Z,8.50
2018-09-19T01:16:24.225Z,9.30
2018-09-19T01:18:52.803Z,8.10
2018-09-19T01:21:21.337Z,7.57
2018-09-19T01:23:49.878Z,8.30
2018-09-19T01:26:18.548Z,9.27
2018-09-19T01:28:47.097Z,7.60
2018-09-19T01:31:16.504Z,8.33
2018-09-19T01:33:45.877Z,7.30
2018-09-19T01:36:14.637Z,7.17
2018-09-19T01:38:43.197Z,8.23
2018-09-19T01:41:11.948Z,7.60
2018-09-19T01:43:40.507Z,8.03
2018-09-19T01:46:09.072Z,7.97
2018-09-19T01:48:37.764Z,7.40
2018-09-19T01:51:06.347Z,7.30
2018-09-19T01:53:34.885Z,7.73
2018-09-19T01:56:03.425Z,8.17
2018-09-19T01:58:31.959Z,6.43
2018-09-19T02:01:00.511Z,6.97
2018-09-19T02:03:29.064Z,7.90
2018-09-19T02:05:57.732Z,7.13
2018-09-19T02:08:26.336Z,6.90
2018-09-19T02:10:54.875Z,7.10
2018-09-19T02:13:23.412Z,7.47
2018-09-19T02:15:52.008Z,7.03
2018-09-19T02:18:20.543Z,6.80
2018-09-19T02:20:49.131Z,7.50
2018-09-19T02:23:17.846Z,7.50
2018-09-19T02:25:46.395Z,7.17
2018-09-19T02:28:15.025Z,6.93
2018-09-19T02:30:43.550Z,7.07
2018-09-19T02:33:12.115Z,6.73
2018-09-19T02:35:40.720Z,6.67
2018-09-19T02:38:09.284Z,6.63
2018-09-19T02:40:37.884Z,7.77
2018-09-19T02:43:06.454Z,7.40
2018-09-19T02:45:35.002Z,7.10
2018-09-19T02:48:03.665Z,8.70
2018-09-19T02:50:32.249Z,8.77
2018-09-19T02:53:00.793Z,8.30
2018-09-19T02:55:29.341Z,7.07
2018-09-19T02:57:57.952Z,6.63
2018-09-19T03:00:26.506Z,7.63
2018-09-19T03:02:55.049Z,9.10
2018-09-19T03:05:23.598Z,8.77
2018-09-19T03:07:52.190Z,9.10
2018-09-19T03:10:20.742Z,8.63
2018-09-19T03:12:49.329Z,8.87
2018-09-19T03:15:20.199Z,9.27
2018-09-19T03:17:48.930Z,11.00
2018-09-19T03:20:17.413Z,9.80
2018-09-19T03:22:45.985Z,11.20
2018-09-19T03:25:14.669Z,11.07
2018-09-19T03:27:43.217Z,12.07
2018-09-19T03:30:11.781Z,11.30
2018-09-19T03:32:40.324Z,10.10
2018-09-19T03:35:08.908Z,10.33
2018-09-19T03:37:37.564Z,10.77
2018-09-19T03:40:06.278Z,9.60
2018-09-19T03:42:34.828Z,10.90
2018-09-19T03:45:03.418Z,10.07
2018-09-19T03:47:31.965Z,9.70
2018-09-19T03:50:00.591Z,10.27
2018-09-19T03:52:29.182Z,8.77
2018-09-19T03:54:57.728Z,8.40
2018-09-19T03:57:26.331Z,8.33
2018-09-19T03:59:55.684Z,8.13
2018-09-19T04:02:24.296Z,9.40
2018-09-19T04:04:52.847Z,8.03
2018-09-19T04:07:21.379Z,6.60
2018-09-19T04:09:49.936Z,6.40
2018-09-19T04:12:18.560Z,5.57
2018-09-19T04:14:47.186Z,6.10
2018-09-19T04:17:15.791Z,7.10
2018-09-19T04:19:44.332Z,7.43
2018-09-19T04:22:12.875Z,6.50
2018-09-19T04:24:41.576Z,8.20
2018-09-19T04:27:10.144Z,8.00
2018-09-19T04:29:38.684Z,6.70
2018-09-19T04:32:07.352Z,6.33
2018-09-19T04:34:35.915Z,6.30
2018-09-19T04:37:05.381Z,5.77
2018-09-19T04:39:33.979Z,6.37
2018-09-19T04:42:02.585Z,6.57
2018-09-19T04:44:31.153Z,7.60
2018-09-19T04:49:50.162Z,7.70
2018-09-19T04:52:18.929Z,7.70
2018-09-19T04:54:47.693Z,6.80
2018-09-19T04:57:16.355Z,7.17
2018-09-19T04:59:44.920Z,6.43
2018-09-19T05:02:13.457Z,5.70
2018-09-19T05:04:41.989Z,6.70
2018-09-19T05:12:51.852Z,6.23
2018-09-19T05:15:20.408Z,7.70
2018-09-19T05:17:48.941Z,6.63
2018-09-19T05:20:17.529Z,6.40
2018-09-19T05:22:46.154Z,6.60
2018-09-19T05:25:14.845Z,6.00
2018-09-19T05:27:43.401Z,6.30
2018-09-19T05:30:12.772Z,5.93
2018-09-19T05:32:42.142Z,7.60
2018-09-19T05:35:10.832Z,7.63
2018-09-19T05:37:39.389Z,9.43
2018-09-19T05:40:07.959Z,11.73
2018-09-19T05:42:36.501Z,13.00
2018-09-19T05:45:05.339Z,13.23
2018-09-19T05:47:33.887Z,13.23
2018-09-19T05:50:02.484Z,14.47
2018-09-19T05:52:31.033Z,16.77
2018-09-19T05:54:59.593Z,17.37
2018-09-19T05:57:28.539Z,23.70
2018-09-19T05:59:57.116Z,24.80
2018-09-19T06:02:25.647Z,20.60
2018-09-19T06:04:54.289Z,20.20
2018-09-19T06:07:22.773Z,14.63
2018-09-19T06:09:51.411Z,14.27
2018-09-19T06:12:20.006Z,9.60
2018-09-19T06:14:48.597Z,7.47
2018-09-19T06:17:18.205Z,10.53
2018-09-19T06:19:46.772Z,48.10
2018-09-19T06:22:15.358Z,78.20
2018-09-19T06:24:43.932Z,44.10
2018-09-19T06:27:13.656Z,35.53
2018-09-19T06:29:42.210Z,29.40
2018-09-19T06:32:10.789Z,20.57
2018-09-19T06:34:39.526Z,13.10
2018-09-19T06:37:08.137Z,12.00
2018-09-19T06:39:36.790Z,8.50
2018-09-19T06:42:05.328Z,7.37
2018-09-19T06:44:33.923Z,7.50
2018-09-19T06:47:02.530Z,7.00
2018-09-19T06:49:31.217Z,7.70
2018-09-19T06:51:59.877Z,6.80
2018-09-19T06:54:28.555Z,6.57
2018-09-19T06:56:57.180Z,6.17
2018-09-19T06:59:25.826Z,5.40
2018-09-19T07:01:54.415Z,6.10
2018-09-19T07:04:22.972Z,6.17
2018-09-19T07:06:52.685Z,6.13
2018-09-19T07:09:21.228Z,5.17
2018-09-19T07:11:49.790Z,5.43
2018-09-19T07:14:18.381Z,5.33
2018-09-19T07:16:46.948Z,5.03
2018-09-19T07:22:17.974Z,5.47
2018-09-19T07:24:46.548Z,5.93
2018-09-19T07:27:15.139Z,4.50
2018-09-19T07:29:43.689Z,4.97
2018-09-19T07:32:12.266Z,4.80
2018-09-19T07:34:40.875Z,4.90
2018-09-19T07:37:09.462Z,5.70
2018-09-19T07:39:38.028Z,4.83
2018-09-19T07:42:06.640Z,5.77
2018-09-19T07:44:35.188Z,5.37
2018-09-19T07:47:03.785Z,4.40
2018-09-19T07:49:32.330Z,4.80
2018-09-19T07:52:00.899Z,4.93
2018-09-19T07:54:29.508Z,4.67
2018-09-19T07:56:58.014Z,4.93
2018-09-19T07:59:26.767Z,5.00
2018-09-19T08:01:55.299Z,4.83
2018-09-19T08:04:23.950Z,5.30
2018-09-19T08:06:52.524Z,5.63
2018-09-19T08:09:21.174Z,4.93
2018-09-19T08:11:49.727Z,5.07
2018-09-19T08:14:18.261Z,5.40
2018-09-19T08:16:46.852Z,6.10
2018-09-19T08:19:15.456Z,7.10
2018-09-19T08:21:44.020Z,5.30
2018-09-19T08:24:12.546Z,6.00
2018-09-19T08:26:41.084Z,5.93
2018-09-19T08:29:09.726Z,4.80
2018-09-19T08:31:38.318Z,5.00
2018-09-19T08:34:06.881Z,4.47
2018-09-19T08:36:35.436Z,5.10
2018-09-19T08:39:06.170Z,4.53
2018-09-19T08:41:34.818Z,5.03
2018-09-19T08:44:03.377Z,5.53
2018-09-19T08:46:32.008Z,5.37
2018-09-19T08:49:00.559Z,5.30
2018-09-19T08:51:29.103Z,4.97
2018-09-19T08:53:57.652Z,6.07
2018-09-19T08:56:26.204Z,5.07
2018-09-19T08:58:55.163Z,5.60
2018-09-19T09:01:23.712Z,5.50
2018-09-19T09:03:52.293Z,6.50
2018-09-19T09:06:20.821Z,6.70
2018-09-19T09:08:49.360Z,5.47
2018-09-19T09:11:18.075Z,5.07
2018-09-19T09:13:46.690Z,5.97
2018-09-19T09:16:15.302Z,5.90
2018-09-19T09:18:43.973Z,4.90
2018-09-19T09:21:12.639Z,4.90
2018-09-19T09:23:42.106Z,5.60
2018-09-19T09:26:13.995Z,5.53
2018-09-19T09:28:42.507Z,4.57
2018-09-19T09:31:11.374Z,5.03
2018-09-19T09:33:39.941Z,5.07
2018-09-19T09:36:08.513Z,5.47
2018-09-19T09:38:37.081Z,5.33
2018-09-19T09:41:05.771Z,6.07
2018-09-19T09:43:34.373Z,5.37
2018-09-19T09:46:02.947Z,5.10
2018-09-19T09:48:31.541Z,4.70
2018-09-19T09:51:00.166Z,4.70
2018-09-19T09:53:28.893Z,5.27
2018-09-19T09:55:57.691Z,5.07
2018-09-19T09:58:26.272Z,5.40
2018-09-19T10:00:55.127Z,5.63
2018-09-19T10:03:23.639Z,4.90
2018-09-19T10:05:52.192Z,4.93
2018-09-19T10:08:20.748Z,3.73
2018-09-19T10:10:49.663Z,4.50
2018-09-19T10:13:18.326Z,4.93
2018-09-19T10:15:46.864Z,5.20
2018-09-19T10:18:15.392Z,4.70
2018-09-19T10:20:43.990Z,4.47
2018-09-19T10:23:12.633Z,3.93
2018-09-19T10:25:41.408Z,4.60
2018-09-19T10:28:09.929Z,5.03
2018-09-19T10:30:38.502Z,4.27
2018-09-19T10:33:07.333Z,5.00
2018-09-19T10:35:36.016Z,4.37
2018-09-19T10:38:04.588Z,5.00
2018-09-19T10:40:33.160Z,4.57
2018-09-19T10:43:01.728Z,4.93
2018-09-19T10:45:30.331Z,4.80
2018-09-19T10:47:58.864Z,4.37
2018-09-19T10:50:27.490Z,4.40
2018-09-19T10:52:56.047Z,4.20
2018-09-19T10:55:25.321Z,4.43
2018-09-19T10:57:53.890Z,4.73
2018-09-19T11:00:22.465Z,4.10
2018-09-19T11:02:51.030Z,4.47
2018-09-19T11:05:19.781Z,6.00
2018-09-19T11:07:48.352Z,5.47
2018-09-19T11:10:16.898Z,5.13
2018-09-19T11:12:45.476Z,5.40
2018-09-19T11:15:14.190Z,8.47
2018-09-19T11:17:42.798Z,5.40
2018-09-19T11:20:11.355Z,6.30
2018-09-19T11:22:39.926Z,4.43
2018-09-19T11:25:08.532Z,5.17
2018-09-19T11:27:37.082Z,5.23
2018-09-19T11:30:06.192Z,5.10
2018-09-19T11:32:34.787Z,6.00
2018-09-19T11:35:03.437Z,5.53
2018-09-19T11:37:32.150Z,5.63
2018-09-19T11:40:00.712Z,5.53
2018-09-19T11:45:19.988Z,5.80
2018-09-19T11:47:48.516Z,5.20
2018-09-19T11:50:17.100Z,7.87
2018-09-19T11:52:45.658Z,5.73
2018-09-19T11:55:15.381Z,5.40
2018-09-19T11:57:44.106Z,5.40
2018-09-19T12:00:13.061Z,7.83
2018-09-19T12:02:41.668Z,5.70
2018-09-19T12:05:11.061Z,5.97
2018-09-19T12:07:39.928Z,5.43
2018-09-19T12:10:08.607Z,5.27
2018-09-19T12:12:38.090Z,5.13
2018-09-19T12:15:06.997Z,5.27
2018-09-19T12:17:35.841Z,5.63
2018-09-19T12:20:04.512Z,4.97
2018-09-19T12:22:33.265Z,5.87
2018-09-19T12:25:01.845Z,6.10
2018-09-19T12:27:30.392Z,5.63
2018-09-19T12:29:58.976Z,4.97
2018-09-19T12:32:27.947Z,5.83
2018-09-19T12:34:56.556Z,6.07
2018-09-19T12:37:25.322Z,6.03
2018-09-19T12:39:53.924Z,5.83
2018-09-19T12:42:22.472Z,5.47
2018-09-19T12:44:51.000Z,5.50
2018-09-19T12:47:19.998Z,6.43
2018-09-19T12:49:48.903Z,6.50
2018-09-19T12:52:17.440Z,5.33
2018-09-19T12:54:46.023Z,6.30
2018-09-19T12:57:14.751Z,5.20
2018-09-19T12:59:43.336Z,4.67
2018-09-19T13:02:11.938Z,5.23
2018-09-19T13:04:40.473Z,4.87
2018-09-19T13:07:09.083Z,5.57
2018-09-19T13:09:37.738Z,8.27
2018-09-19T13:12:06.315Z,5.60
2018-09-19T13:14:34.884Z,6.53
2018-09-19T13:17:03.480Z,5.20
2018-09-19T13:19:32.080Z,5.77
2018-09-19T13:22:00.657Z,5.70
2018-09-19T13:24:29.180Z,5.10
2018-09-19T13:26:57.750Z,4.90
2018-09-19T13:29:26.412Z,5.27
2018-09-19T13:31:55.258Z,5.17
2018-09-19T13:34:23.873Z,4.63
2018-09-19T13:36:52.508Z,6.43
2018-09-19T13:39:21.080Z,5.00
2018-09-19T13:41:49.648Z,6.50
2018-09-19T13:44:18.420Z,6.10
2018-09-19T13:46:47.028Z,6.27
2018-09-19T13:49:34.502Z,6.07
2018-09-19T13:52:03.061Z,5.50
2018-09-19T13:54:31.645Z,5.47
2018-09-19T13:57:00.255Z,4.20
2018-09-19T13:59:28.844Z,5.37
2018-09-19T14:01:58.404Z,5.70
2018-09-19T14:04:27.011Z,4.80
2018-09-19T14:06:55.731Z,5.43
2018-09-19T14:09:24.301Z,5.80
2018-09-19T14:11:52.978Z,4.47
2018-09-19T14:14:21.549Z,4.70
2018-09-19T14:16:50.311Z,5.03
2018-09-19T14:19:19.024Z,5.53
2018-09-19T14:21:47.795Z,8.07
2018-09-19T14:24:16.756Z,8.07
2018-09-19T14:26:45.499Z,6.30
2018-09-19T14:29:14.143Z,5.73
2018-09-19T14:31:42.747Z,6.10
2018-09-19T14:34:11.377Z,5.97
2018-09-19T14:36:39.937Z,5.67
2018-09-19T14:39:08.957Z,7.27
2018-09-19T14:41:37.591Z,6.13
2018-09-19T14:44:06.221Z,5.40
2018-09-19T14:46:34.790Z,7.27
2018-09-19T14:49:03.538Z,7.63
2018-09-19T14:51:32.113Z,6.47
2018-09-19T14:54:00.760Z,5.73
2018-09-19T14:56:29.615Z,4.97
2018-09-19T14:58:58.157Z,6.10
2018-09-19T15:01:26.721Z,6.50
2018-09-19T15:03:55.316Z,5.97
2018-09-19T15:06:23.918Z,5.13
2018-09-19T15:08:52.497Z,5.90
2018-09-19T15:11:21.140Z,7.00
2018-09-19T15:13:49.724Z,6.90
2018-09-19T15:16:18.329Z,9.00
2018-09-19T15:18:46.986Z,7.30
2018-09-19T15:21:15.629Z,9.13
2018-09-19T15:23:44.229Z,61.40
2018-09-19T15:26:12.860Z,21.10
2018-09-19T15:28:41.479Z,12.20
2018-09-19T15:31:10.075Z,12.83
2018-09-19T15:33:38.649Z,8.03
2018-09-19T15:36:07.348Z,9.13
2018-09-19T15:38:36.028Z,6.83
2018-09-19T15:41:04.644Z,11.70
2018-09-19T15:43:33.203Z,7.23
2018-09-19T15:46:01.812Z,9.03
2018-09-19T15:48:30.352Z,10.17
2018-09-19T15:50:58.960Z,5.93
2018-09-19T15:53:30.931Z,7.67
2018-09-19T15:56:00.549Z,7.73
2018-09-19T15:58:29.108Z,7.97
2018-09-19T16:00:57.646Z,9.00
2018-09-19T16:03:27.796Z,12.33
2018-09-19T16:05:56.559Z,7.57
2018-09-19T16:08:25.136Z,7.47
2018-09-19T16:10:53.855Z,7.53
2018-09-19T16:13:22.527Z,7.20
2018-09-19T16:15:51.104Z,7.80
